Sweetwater, Texas
Current Conditions -  °F | °C
As of 3:55 AM on Sunday 23 Nov 2014 (Local Time) from KSWW Reporting Station
Clear Clear  
Wind Chill: 51°   Ceiling: Unl
Heat Index: 51°   Visibility: 10mi
Dew Point: 45°   Wind: 15mph
Humidity: 79%   Direction: 200°SSW
Pressure: 29.63"   Gusts: NA
Location:  32.47°N, 100.39°W
Report Text: KSWW 230955Z AUTO 20013KT 10SM CLR 11/07 A2963 RMK AO2 T01050070
Loading
Personal Weather Stations






























Interactive Weather Map New forecast layout! Learn more

10-Day Weather Forecast

Advertisements
Track Severe Weather on mobile